createdAt,value
2022-09-16T00:01:27.295Z,0.90
2022-09-16T00:04:17.826Z,0.80
2022-09-16T00:07:05.273Z,0.80
2022-09-16T00:09:52.194Z,1.05
2022-09-16T00:12:39.385Z,0.90
2022-09-16T00:15:26.745Z,0.80
2022-09-16T00:18:14.815Z,1.15
2022-09-16T00:21:03.173Z,0.90
2022-09-16T00:23:50.536Z,1.45
2022-09-16T00:26:38.587Z,1.00
2022-09-16T00:29:26.046Z,1.00
2022-09-16T00:32:13.386Z,0.80
2022-09-16T00:35:00.913Z,1.13
2022-09-16T00:37:49.465Z,1.10
2022-09-16T00:40:36.854Z,1.10
2022-09-16T00:43:23.879Z,0.93
2022-09-16T00:46:10.900Z,1.17
2022-09-16T00:48:58.771Z,1.00
2022-09-16T00:51:47.847Z,0.88
2022-09-16T00:54:38.755Z,1.05
2022-09-16T00:57:26.323Z,1.13
2022-09-16T01:00:14.268Z,1.08
2022-09-16T01:03:01.426Z,1.10
2022-09-16T01:05:49.527Z,0.90
2022-09-16T01:08:36.563Z,0.85
2022-09-16T01:11:25.617Z,1.10
2022-09-16T01:14:31.222Z,1.00
2022-09-16T01:17:28.163Z,1.08
2022-09-16T01:20:57.141Z,1.15
2022-09-16T01:24:17.259Z,1.00
2022-09-16T01:27:30.228Z,1.27
2022-09-16T01:30:44.575Z,1.30
2022-09-16T01:33:42.519Z,1.00
2022-09-16T01:36:39.731Z,0.98
2022-09-16T01:39:33.854Z,1.15
2022-09-16T01:42:29.544Z,0.98
2022-09-16T01:45:20.586Z,1.00
2022-09-16T01:48:17.278Z,1.08
2022-09-16T01:51:09.431Z,1.00
2022-09-16T01:54:06.950Z,1.08
2022-09-16T01:56:59.984Z,1.60
2022-09-16T01:59:53.027Z,1.42
2022-09-16T02:02:44.387Z,1.50
2022-09-16T02:05:37.860Z,1.45
2022-09-16T02:08:30.721Z,1.30
2022-09-16T02:11:19.362Z,1.33
2022-09-16T02:14:11.089Z,1.10
2022-09-16T02:17:02.258Z,1.30
2022-09-16T02:19:58.845Z,1.10
2022-09-16T02:22:50.296Z,1.35
2022-09-16T02:25:40.533Z,1.30
2022-09-16T02:28:32.537Z,1.10
2022-09-16T02:31:24.055Z,1.60
2022-09-16T02:34:15.621Z,1.10
2022-09-16T02:37:07.490Z,1.25
2022-09-16T02:40:02.201Z,1.30
2022-09-16T02:42:49.617Z,1.17
2022-09-16T02:45:46.039Z,1.40
2022-09-16T02:48:41.849Z,1.20
2022-09-16T02:51:39.797Z,1.30
2022-09-16T02:54:35.759Z,1.65
2022-09-16T02:57:24.745Z,1.70
2022-09-16T03:00:12.578Z,1.50
2022-09-16T03:02:59.939Z,1.60
2022-09-16T03:06:13.804Z,1.30
2022-09-16T03:09:03.394Z,1.50
2022-09-16T03:12:18.658Z,1.58
2022-09-16T03:15:31.517Z,1.50
2022-09-16T03:18:37.623Z,1.80
2022-09-16T03:21:32.194Z,1.43
2022-09-16T03:24:30.419Z,1.60
2022-09-16T03:27:23.942Z,1.57
2022-09-16T03:30:12.647Z,1.40
2022-09-16T03:33:05.769Z,1.83
2022-09-16T03:35:54.073Z,1.70
2022-09-16T03:38:43.034Z,2.13
2022-09-16T03:41:31.980Z,1.77
2022-09-16T03:44:19.506Z,1.73
2022-09-16T03:47:07.243Z,1.80
2022-09-16T03:49:56.376Z,1.63
2022-09-16T03:52:43.604Z,2.00
2022-09-16T03:55:31.075Z,1.70
2022-09-16T03:58:18.403Z,1.80
2022-09-16T04:01:05.909Z,2.17
2022-09-16T04:03:53.262Z,1.80
2022-09-16T04:06:42.184Z,2.00
2022-09-16T04:09:29.262Z,2.10
2022-09-16T04:12:16.224Z,2.40
2022-09-16T04:15:03.662Z,2.35
2022-09-16T04:17:50.768Z,2.55
2022-09-16T04:20:38.100Z,2.03
2022-09-16T04:23:26.859Z,2.60
2022-09-16T04:26:13.882Z,2.27
2022-09-16T04:29:01.161Z,2.00
2022-09-16T04:31:48.932Z,2.00
2022-09-16T04:34:35.950Z,2.20
2022-09-16T04:37:22.842Z,2.03
2022-09-16T04:40:11.892Z,1.92
2022-09-16T04:42:59.482Z,1.80
2022-09-16T04:45:47.047Z,2.30
2022-09-16T04:48:34.761Z,1.80
2022-09-16T04:51:22.603Z,1.87
2022-09-16T04:54:09.687Z,2.03
2022-09-16T04:56:58.622Z,2.08
2022-09-16T04:59:45.959Z,2.10
2022-09-16T05:02:32.925Z,2.50
2022-09-16T05:05:20.339Z,2.40
2022-09-16T05:08:07.888Z,2.10
2022-09-16T05:10:55.039Z,1.80
2022-09-16T05:13:43.420Z,1.50
2022-09-16T05:16:32.704Z,1.60
2022-09-16T05:19:20.368Z,1.70
2022-09-16T05:22:07.292Z,1.60
2022-09-16T05:24:54.514Z,1.77
2022-09-16T05:27:41.756Z,1.70
2022-09-16T05:30:30.538Z,1.37
2022-09-16T05:33:17.487Z,1.60
2022-09-16T05:36:06.535Z,1.88
2022-09-16T05:39:21.160Z,1.40
2022-09-16T05:42:01.559Z,1.63
2022-09-16T05:44:48.872Z,2.03
2022-09-16T05:47:37.494Z,1.47
2022-09-16T05:50:24.804Z,1.40
2022-09-16T05:53:11.702Z,1.47
2022-09-16T05:55:59.811Z,1.45
2022-09-16T05:58:47.421Z,1.30
2022-09-16T06:01:37.174Z,1.80
2022-09-16T06:04:25.534Z,1.63
2022-09-16T06:07:12.539Z,1.67
2022-09-16T06:09:59.883Z,1.30
2022-09-16T06:12:46.887Z,1.27
2022-09-16T06:15:35.598Z,1.50
2022-09-16T06:18:23.441Z,1.92
2022-09-16T06:21:12.969Z,1.50
2022-09-16T06:24:00.340Z,2.28
2022-09-16T06:26:49.177Z,1.58
2022-09-16T06:29:36.404Z,1.27
2022-09-16T06:32:23.730Z,1.48
2022-09-16T06:35:10.963Z,1.10
2022-09-16T06:37:59.942Z,1.30
2022-09-16T06:40:46.896Z,1.17
2022-09-16T06:43:35.221Z,1.20
2022-09-16T06:46:25.109Z,1.25
2022-09-16T06:54:30.890Z,1.20
2022-09-16T06:57:20.200Z,1.23
2022-09-16T07:00:08.589Z,1.50
2022-09-16T07:02:55.968Z,1.63
2022-09-16T07:05:42.983Z,1.38
2022-09-16T07:08:31.287Z,1.45
2022-09-16T07:11:21.787Z,1.48
2022-09-16T07:14:09.335Z,1.05
2022-09-16T07:16:56.610Z,1.00
2022-09-16T07:19:44.599Z,1.30
2022-09-16T07:22:32.888Z,1.20
2022-09-16T07:25:20.275Z,1.23
2022-09-16T07:28:08.916Z,1.30
2022-09-16T07:30:56.859Z,1.27
2022-09-16T07:33:47.675Z,1.35
2022-09-16T07:36:37.093Z,1.10
2022-09-16T07:39:25.702Z,0.95
2022-09-16T07:42:13.082Z,0.98
2022-09-16T07:45:01.723Z,1.30
2022-09-16T07:47:50.397Z,1.55
2022-09-16T07:50:37.653Z,0.90
2022-09-16T07:53:27.632Z,1.40
2022-09-16T07:56:19.780Z,0.88
2022-09-16T07:59:14.280Z,1.13
2022-09-16T08:02:06.548Z,1.17
2022-09-16T08:04:53.955Z,0.80
2022-09-16T08:07:41.119Z,1.10
2022-09-16T08:10:32.274Z,1.15
2022-09-16T08:13:19.638Z,1.27
2022-09-16T08:16:09.073Z,0.90
2022-09-16T08:18:59.292Z,1.05
2022-09-16T08:21:46.904Z,0.98
2022-09-16T08:24:34.367Z,0.90
2022-09-16T08:27:21.555Z,0.90
2022-09-16T08:30:10.698Z,1.23
2022-09-16T08:32:58.695Z,1.05
2022-09-16T08:35:47.116Z,1.05
2022-09-16T08:38:35.414Z,1.73
2022-09-16T08:41:43.449Z,1.13
2022-09-16T08:44:41.281Z,1.33
2022-09-16T08:47:42.096Z,1.45
2022-09-16T08:50:32.980Z,1.20
2022-09-16T08:53:32.446Z,1.13
2022-09-16T08:56:23.335Z,1.55
2022-09-16T08:59:18.758Z,1.10
2022-09-16T09:02:25.436Z,1.30
2022-09-16T09:05:18.151Z,1.25
2022-09-16T09:08:20.040Z,1.08
2022-09-16T09:11:15.911Z,1.25
2022-09-16T09:14:27.397Z,1.20
2022-09-16T09:17:25.683Z,1.35
2022-09-16T09:20:32.195Z,1.08
2022-09-16T09:23:34.610Z,1.20
2022-09-16T09:26:26.048Z,0.82
2022-09-16T09:29:30.306Z,1.15
2022-09-16T09:32:24.519Z,1.05
2022-09-16T09:35:33.297Z,0.98
2022-09-16T09:38:36.637Z,1.23
2022-09-16T09:41:31.496Z,1.00
2022-09-16T09:44:34.261Z,1.27
2022-09-16T09:47:26.316Z,1.23
2022-09-16T09:50:18.553Z,1.05
2022-09-16T09:53:15.554Z,1.00
2022-09-16T09:56:15.204Z,0.85
2022-09-16T09:59:26.042Z,0.85
2022-09-16T10:02:17.891Z,0.90
2022-09-16T10:05:07.291Z,1.05
2022-09-16T10:07:58.700Z,1.30
2022-09-16T10:10:50.329Z,1.23
2022-09-16T10:13:48.047Z,1.00
2022-09-16T10:16:38.355Z,1.10
2022-09-16T10:19:28.377Z,1.15
2022-09-16T10:22:24.551Z,0.80
2022-09-16T10:25:26.602Z,1.20
2022-09-16T10:28:23.936Z,1.20
2022-09-16T10:31:12.551Z,1.25
2022-09-16T10:34:03.485Z,1.27
2022-09-16T10:37:01.332Z,1.00
2022-09-16T10:39:54.338Z,1.25
2022-09-16T10:42:47.268Z,1.50
2022-09-16T10:45:37.451Z,1.05
2022-09-16T10:48:28.076Z,1.38
2022-09-16T10:51:24.477Z,0.93
2022-09-16T10:54:25.684Z,1.20
2022-09-16T10:57:25.310Z,1.05
2022-09-16T11:00:16.901Z,0.80
2022-09-16T11:03:31.522Z,1.00
2022-09-16T11:06:32.028Z,0.70
2022-09-16T11:09:24.336Z,1.08
2022-09-16T11:12:33.676Z,1.25
2022-09-16T11:15:33.216Z,0.95
2022-09-16T11:18:32.444Z,0.93
2022-09-16T11:21:36.584Z,0.85
2022-09-16T11:24:45.251Z,0.93
2022-09-16T11:27:50.694Z,0.73
2022-09-16T11:30:47.176Z,1.05
2022-09-16T11:33:42.945Z,1.10
2022-09-16T11:36:41.352Z,0.77
2022-09-16T11:39:40.065Z,0.90
2022-09-16T11:42:33.795Z,0.98
2022-09-16T11:45:34.728Z,1.13
2022-09-16T11:48:38.892Z,0.85
2022-09-16T11:51:36.651Z,0.68
2022-09-16T11:54:46.760Z,1.25
2022-09-16T11:57:38.969Z,0.73
2022-09-16T12:00:26.355Z,0.63
2022-09-16T12:03:22.713Z,0.70
2022-09-16T12:06:14.577Z,0.90
2022-09-16T12:09:07.647Z,0.90
2022-09-16T12:12:07.034Z,0.90
2022-09-16T12:15:03.315Z,1.05
2022-09-16T12:17:55.210Z,1.02
2022-09-16T12:20:46.237Z,1.20
2022-09-16T12:23:40.106Z,0.75
2022-09-16T12:26:32.984Z,0.75
2022-09-16T12:29:28.847Z,1.00
2022-09-16T12:32:22.172Z,1.10
2022-09-16T12:35:15.457Z,0.90
2022-09-16T12:38:02.836Z,0.70
2022-09-16T12:41:03.874Z,0.88
2022-09-16T12:44:33.570Z,0.80
2022-09-16T12:47:54.863Z,0.70
2022-09-16T12:50:55.399Z,1.17
2022-09-16T12:54:27.341Z,0.88
2022-09-16T12:57:32.368Z,1.77
2022-09-16T13:00:22.132Z,2.72
2022-09-16T13:03:16.652Z,1.40
2022-09-16T13:06:08.665Z,1.30
2022-09-16T13:08:57.105Z,2.30
2022-09-16T13:12:31.993Z,2.03
2022-09-16T13:15:04.056Z,1.50
2022-09-16T13:17:53.296Z,0.80
2022-09-16T13:20:49.421Z,1.17
2022-09-16T13:23:43.714Z,0.98
2022-09-16T13:26:41.066Z,0.70
2022-09-16T13:29:43.792Z,0.93
2022-09-16T13:32:40.516Z,1.45
2022-09-16T13:35:44.647Z,1.02
2022-09-16T13:38:40.455Z,0.90
2022-09-16T13:41:34.097Z,0.80
2022-09-16T13:44:30.883Z,1.10
2022-09-16T13:47:29.571Z,1.20
2022-09-16T13:50:21.279Z,1.13
2022-09-16T13:53:22.026Z,0.82
2022-09-16T13:56:28.066Z,0.90
2022-09-16T13:59:36.134Z,1.13
2022-09-16T14:02:31.475Z,0.80
2022-09-16T14:05:33.468Z,0.80
2022-09-16T14:08:31.109Z,0.70
2022-09-16T14:11:26.151Z,0.98
2022-09-16T14:14:45.771Z,0.98
2022-09-16T14:17:28.598Z,0.88
2022-09-16T14:20:17.940Z,1.00
2022-09-16T14:23:06.921Z,0.90
2022-09-16T14:25:55.715Z,0.70
2022-09-16T14:28:42.697Z,0.77
2022-09-16T14:31:31.554Z,0.90
2022-09-16T14:34:26.165Z,0.82
2022-09-16T14:37:18.197Z,0.82
2022-09-16T14:40:12.929Z,0.65
2022-09-16T14:43:05.432Z,1.00
2022-09-16T14:45:55.334Z,0.70
2022-09-16T14:48:43.547Z,0.73
2022-09-16T14:51:31.112Z,1.00
2022-09-16T14:54:19.376Z,0.77
2022-09-16T14:57:08.762Z,1.10
2022-09-16T14:59:59.103Z,0.90
2022-09-16T15:02:51.066Z,0.95
2022-09-16T15:05:40.851Z,0.88
2022-09-16T15:08:32.141Z,0.70
2022-09-16T15:11:46.555Z,1.02
2022-09-16T15:14:30.829Z,1.02
2022-09-16T15:17:22.550Z,0.70
2022-09-16T15:20:22.406Z,1.17
2022-09-16T15:23:20.503Z,1.13
2022-09-16T15:26:15.468Z,0.88
2022-09-16T15:29:04.916Z,0.82
2022-09-16T15:31:52.636Z,0.93
2022-09-16T15:34:43.864Z,1.30
2022-09-16T15:37:32.973Z,0.90
2022-09-16T15:40:36.056Z,1.00
2022-09-16T15:43:29.322Z,0.80
2022-09-16T15:46:21.779Z,0.95
2022-09-16T15:49:14.531Z,0.93
2022-09-16T15:52:09.255Z,0.90
2022-09-16T15:55:00.859Z,1.00
2022-09-16T15:57:48.272Z,1.23
2022-09-16T16:01:00.298Z,1.00
2022-09-16T16:03:54.694Z,1.30
2022-09-16T16:06:51.560Z,1.02
2022-09-16T16:09:42.972Z,0.95
2022-09-16T16:12:32.293Z,0.80
2022-09-16T16:15:22.492Z,0.85
2022-09-16T16:18:10.598Z,1.10
2022-09-16T16:20:57.949Z,1.08
2022-09-16T16:23:46.287Z,0.95
2022-09-16T16:26:35.680Z,1.40
2022-09-16T16:29:23.263Z,0.98
2022-09-16T16:32:12.889Z,0.80
2022-09-16T16:35:00.278Z,1.10
2022-09-16T16:37:47.900Z,1.23
2022-09-16T16:40:35.810Z,3.08
2022-09-16T16:43:24.105Z,1.50
2022-09-16T16:46:11.425Z,1.00
2022-09-16T16:48:58.727Z,1.30
2022-09-16T16:51:46.254Z,1.20
2022-09-16T16:54:34.306Z,1.20
2022-09-16T16:57:21.504Z,1.00
2022-09-16T17:00:13.687Z,1.70
2022-09-16T17:03:01.084Z,1.23
2022-09-16T17:05:48.195Z,1.00
2022-09-16T17:08:35.897Z,1.30
2022-09-16T17:11:24.087Z,1.00
2022-09-16T17:14:11.117Z,0.90
2022-09-16T17:17:01.944Z,1.65
2022-09-16T17:19:48.895Z,1.25
2022-09-16T17:22:36.083Z,1.10
2022-09-16T17:25:23.392Z,1.10
2022-09-16T17:28:11.181Z,1.00
2022-09-16T17:30:58.150Z,1.10
2022-09-16T17:33:47.486Z,1.13
2022-09-16T17:36:36.711Z,1.00
2022-09-16T17:39:24.098Z,1.10
2022-09-16T17:42:11.055Z,1.00
2022-09-16T17:44:58.157Z,1.30
2022-09-16T17:47:45.378Z,1.15
2022-09-16T17:50:34.151Z,0.95
2022-09-16T17:53:21.217Z,1.10
2022-09-16T17:56:10.864Z,1.00
2022-09-16T17:58:58.155Z,1.02
2022-09-16T18:01:45.972Z,0.90
2022-09-16T18:04:32.933Z,1.27
2022-09-16T18:07:21.555Z,0.93
2022-09-16T18:10:09.221Z,0.90
2022-09-16T18:12:58.071Z,0.95
2022-09-16T18:15:45.327Z,1.33
2022-09-16T18:18:32.946Z,0.95
2022-09-16T18:21:21.493Z,1.58
2022-09-16T18:24:13.410Z,1.30
2022-09-16T18:27:02.434Z,1.20
2022-09-16T18:29:49.623Z,1.20
2022-09-16T18:32:36.770Z,0.82
2022-09-16T18:35:23.909Z,1.15
2022-09-16T18:38:12.845Z,1.35
2022-09-16T18:41:09.544Z,0.90
2022-09-16T18:43:59.333Z,1.10
2022-09-16T18:46:47.119Z,1.17
2022-09-16T18:49:34.074Z,0.85
2022-09-16T18:52:21.346Z,1.70
2022-09-16T18:55:09.188Z,1.50
2022-09-16T18:57:57.831Z,1.30
2022-09-16T19:00:47.179Z,1.20
2022-09-16T19:03:34.470Z,1.27
2022-09-16T19:06:22.550Z,1.20
2022-09-16T19:09:12.373Z,1.83
2022-09-16T19:12:02.273Z,0.93
2022-09-16T19:14:54.126Z,1.45
2022-09-16T19:17:41.271Z,1.10
2022-09-16T19:20:28.661Z,1.45
2022-09-16T19:23:16.558Z,1.15
2022-09-16T19:26:05.270Z,1.10
2022-09-16T19:28:52.793Z,1.30
2022-09-16T19:31:43.077Z,1.42
2022-09-16T19:34:30.267Z,1.00
2022-09-16T19:37:17.682Z,1.30
2022-09-16T19:40:04.970Z,1.08
2022-09-16T19:42:52.179Z,1.30
2022-09-16T19:45:39.626Z,2.15
2022-09-16T19:48:28.126Z,1.33
2022-09-16T19:51:16.636Z,1.27
2022-09-16T19:54:03.858Z,0.93
2022-09-16T19:56:51.316Z,2.03
2022-09-16T19:59:38.563Z,1.10
2022-09-16T20:02:26.282Z,1.23
2022-09-16T20:05:15.332Z,1.35
2022-09-16T20:08:02.909Z,1.40
2022-09-16T20:10:50.170Z,1.15
2022-09-16T20:13:38.204Z,1.35
2022-09-16T20:16:28.657Z,1.02
2022-09-16T20:19:17.652Z,1.00
2022-09-16T20:22:06.114Z,1.30
2022-09-16T20:25:12.091Z,1.35
2022-09-16T20:28:00.100Z,1.00
2022-09-16T20:30:47.603Z,1.27
2022-09-16T20:33:35.168Z,1.05
2022-09-16T20:36:24.473Z,1.48
2022-09-16T20:39:13.445Z,1.27
2022-09-16T20:42:00.618Z,0.97
2022-09-16T20:44:49.555Z,1.33
2022-09-16T20:47:36.469Z,1.02
2022-09-16T20:50:23.682Z,1.20
2022-09-16T20:53:11.799Z,1.40
2022-09-16T20:56:04.687Z,1.37
2022-09-16T20:58:52.305Z,1.10
2022-09-16T21:01:41.495Z,0.97
2022-09-16T21:04:28.434Z,1.00
2022-09-16T21:07:15.623Z,1.13
2022-09-16T21:10:02.800Z,1.10
2022-09-16T21:12:51.482Z,1.20
2022-09-16T21:15:38.590Z,1.43
2022-09-16T21:18:26.757Z,1.33
2022-09-16T21:21:16.835Z,1.00
2022-09-16T21:24:05.805Z,1.13
2022-09-16T21:26:53.794Z,1.40
2022-09-16T21:29:42.827Z,1.47
2022-09-16T21:32:31.164Z,1.13
2022-09-16T21:35:18.008Z,1.27
2022-09-16T21:38:05.326Z,1.40
2022-09-16T21:40:56.970Z,1.10
2022-09-16T21:43:48.079Z,1.15
2022-09-16T21:46:41.510Z,0.80
2022-09-16T21:49:30.414Z,1.00
2022-09-16T21:52:17.840Z,1.63
2022-09-16T21:55:05.581Z,1.43
2022-09-16T21:57:52.581Z,1.20
2022-09-16T22:00:40.513Z,1.53
2022-09-16T22:03:28.846Z,1.00
2022-09-16T22:06:18.323Z,1.20
2022-09-16T22:09:07.988Z,1.23
2022-09-16T22:11:55.337Z,1.37
2022-09-16T22:14:42.317Z,1.03
2022-09-16T22:17:29.535Z,1.13
2022-09-16T22:20:18.258Z,1.37
2022-09-16T22:23:05.537Z,1.37
2022-09-16T22:25:52.911Z,1.03
2022-09-16T22:28:40.883Z,1.20
2022-09-16T22:31:29.534Z,1.10
2022-09-16T22:34:16.776Z,0.90
2022-09-16T22:37:05.767Z,1.33
2022-09-16T22:39:53.124Z,1.42
2022-09-16T22:42:40.198Z,1.10
2022-09-16T22:45:27.661Z,1.17
2022-09-16T22:48:16.393Z,1.33
2022-09-16T22:51:04.648Z,1.40
2022-09-16T22:53:54.183Z,1.50
2022-09-16T22:56:41.131Z,1.10
2022-09-16T22:59:28.377Z,1.03
2022-09-16T23:02:15.711Z,1.40
2022-09-16T23:05:03.227Z,1.00
2022-09-16T23:07:50.475Z,1.30
2022-09-16T23:10:39.394Z,1.00
2022-09-16T23:13:26.989Z,0.97
2022-09-16T23:16:16.190Z,1.23
2022-09-16T23:19:05.150Z,1.13
2022-09-16T23:21:52.253Z,1.30
2022-09-16T23:24:39.823Z,1.20
2022-09-16T23:27:28.359Z,1.47
2022-09-16T23:30:15.944Z,1.13
2022-09-16T23:33:03.280Z,1.53
2022-09-16T23:35:51.643Z,1.10
2022-09-16T23:38:40.523Z,1.60
2022-09-16T23:41:28.028Z,1.43
2022-09-16T23:44:17.045Z,1.50
2022-09-16T23:47:04.547Z,1.47
2022-09-16T23:49:52.598Z,1.40
2022-09-16T23:52:40.157Z,1.43
2022-09-16T23:55:27.156Z,1.30
2022-09-16T23:58:15.055Z,1.20
